createdAt,value
2019-04-03T00:00:45.133Z,84.81
2019-04-03T00:01:54.813Z,85
2019-04-03T00:03:07.439Z,85.1
2019-04-03T00:04:17.707Z,85
2019-04-03T00:05:27.749Z,85.38
2019-04-03T00:06:40.002Z,85.28
2019-04-03T00:07:49.949Z,85.95
2019-04-03T00:09:00.036Z,85.47
2019-04-03T00:10:12.047Z,85.57
2019-04-03T00:11:22.242Z,85.47
2019-04-03T00:12:32.167Z,85.95
2019-04-03T00:13:44.960Z,86.23
2019-04-03T00:14:54.944Z,85.47
2019-04-03T00:16:04.705Z,86.14
2019-04-03T00:17:17.483Z,85.76
2019-04-03T00:18:27.437Z,85.85
2019-04-03T00:19:37.367Z,86.04
2019-04-03T00:20:51.512Z,86.33
2019-04-03T00:22:01.456Z,85.66
2019-04-03T00:23:11.632Z,85.57
2019-04-03T00:24:22.516Z,85.38
2019-04-03T00:25:32.955Z,85.24
2019-04-03T00:26:42.912Z,85.53
2019-04-03T00:27:55.404Z,85.43
2019-04-03T00:29:05.368Z,85.24
2019-04-03T00:30:15.295Z,85.72
2019-04-03T00:31:27.252Z,85.53
2019-04-03T00:32:37.187Z,85.43
2019-04-03T00:33:47.288Z,85.43
2019-04-03T00:34:58.863Z,85.62
2019-04-03T00:36:08.893Z,85.72
2019-04-03T00:37:18.820Z,85.72
2019-04-03T00:38:30.584Z,86
2019-04-03T00:39:40.662Z,86.19
2019-04-03T00:40:50.759Z,85.91
2019-04-03T00:42:02.372Z,86.29
2019-04-03T00:43:12.292Z,85.62
2019-04-03T00:44:22.671Z,87.23
2019-04-03T00:45:34.149Z,87.51
2019-04-03T00:46:44.209Z,87.51
2019-04-03T00:47:55.673Z,87.7
2019-04-03T00:49:06.150Z,88.27
2019-04-03T00:50:16.113Z,88.65
2019-04-03T00:51:29.720Z,88.65
2019-04-03T00:52:39.750Z,88.08
2019-04-03T00:53:49.579Z,88.08
2019-04-03T00:55:01.003Z,87.79
2019-04-03T00:56:10.927Z,88.36
2019-04-03T00:57:20.951Z,88.46
2019-04-03T00:58:33.690Z,88.55
2019-04-03T00:59:43.786Z,88.93
2019-04-03T01:00:54.694Z,88.93
2019-04-03T01:02:06.208Z,87.79
2019-04-03T01:03:16.185Z,88.08
2019-04-03T01:04:28.126Z,88.55
2019-04-03T01:05:38.394Z,88.93
2019-04-03T01:06:48.339Z,89.03
2019-04-03T01:08:02.347Z,88.55
2019-04-03T01:09:12.300Z,89.03
2019-04-03T01:10:22.623Z,88.46
2019-04-03T01:11:34.629Z,88.93
2019-04-03T01:12:44.550Z,88.93
2019-04-03T01:13:54.467Z,88.46
2019-04-03T01:15:06.489Z,89.03
2019-04-03T01:16:16.779Z,89.59
2019-04-03T01:17:26.784Z,89.31
2019-04-03T01:18:39.720Z,89.22
2019-04-03T01:19:49.642Z,89.69
2019-04-03T01:20:59.576Z,89.12
2019-04-03T01:22:11.799Z,88.65
2019-04-03T01:23:21.724Z,89.4
2019-04-03T01:24:31.644Z,89.31
2019-04-03T01:25:43.810Z,89.31
2019-04-03T01:26:53.739Z,89.87
2019-04-03T01:28:03.675Z,90.44
2019-04-03T01:29:16.200Z,90.06
2019-04-03T01:30:26.134Z,90.44
2019-04-03T01:31:36.097Z,90.44
2019-04-03T01:32:49.483Z,90.82
2019-04-03T01:33:59.739Z,90.54
2019-04-03T01:35:12.170Z,90.06
2019-04-03T01:36:24.715Z,90.63
2019-04-03T01:37:34.719Z,90.25
2019-04-03T01:38:44.636Z,90.54
2019-04-03T01:39:57.124Z,90.16
2019-04-03T01:41:07.281Z,90.25
2019-04-03T01:42:17.225Z,89.87
2019-04-03T01:43:29.352Z,89.59
2019-04-03T01:44:39.312Z,89.5
2019-04-03T01:45:49.250Z,89.12
2019-04-03T01:47:01.788Z,88.84
2019-04-03T01:48:11.857Z,88.65
2019-04-03T01:49:21.776Z,88.55
2019-04-03T01:50:33.482Z,88.08
2019-04-03T01:51:43.454Z,87.98
2019-04-03T01:52:53.572Z,88.17
2019-04-03T01:54:06.130Z,87.98
2019-04-03T01:55:16.077Z,88.08
2019-04-03T01:56:26.055Z,88.74
2019-04-03T01:57:39.479Z,88.74
2019-04-03T01:58:49.429Z,88.6
2019-04-03T01:59:59.438Z,89.17
2019-04-03T02:01:12.355Z,89.54
2019-04-03T02:02:22.021Z,90.21
2019-04-03T02:03:31.944Z,89.92
2019-04-03T02:04:45.550Z,90.3
2019-04-03T02:05:55.481Z,90.4
2019-04-03T02:07:05.592Z,90.02
2019-04-03T02:08:18.007Z,89.45
2019-04-03T02:09:27.874Z,89.64
2019-04-03T02:10:37.804Z,89.83
2019-04-03T02:11:49.285Z,90.02
2019-04-03T02:12:59.667Z,89.36
2019-04-03T02:14:09.638Z,88.79
2019-04-03T02:15:21.527Z,88.04
2019-04-03T02:16:32.027Z,88.23
2019-04-03T02:17:41.950Z,87.75
2019-04-03T02:18:51.999Z,88.89
2019-04-03T02:20:03.551Z,88.7
2019-04-03T02:21:13.577Z,88.51
2019-04-03T02:22:23.658Z,88.7
2019-04-03T02:23:35.077Z,88.89
2019-04-03T02:24:44.749Z,88.79
2019-04-03T02:25:54.546Z,88.79
2019-04-03T02:27:07.442Z,88.79
2019-04-03T02:28:17.610Z,88.79
2019-04-03T02:29:27.536Z,88.79
2019-04-03T02:30:37.642Z,89.54
2019-04-03T02:31:54.267Z,89.92
2019-04-03T02:33:04.269Z,90.59
2019-04-03T02:34:14.770Z,92.76
2019-04-03T02:35:24.453Z,92.76
2019-04-03T02:36:34.482Z,92.94
2019-04-03T02:37:52.439Z,92.57
2019-04-03T02:39:02.394Z,92.19
2019-04-03T02:40:12.620Z,91.63
2019-04-03T02:41:22.942Z,91.15
2019-04-03T02:42:33.074Z,91.34
2019-04-03T02:43:49.020Z,91.53
2019-04-03T02:44:59.750Z,91.72
2019-04-03T02:46:10.510Z,91.44
2019-04-03T02:47:20.882Z,91.63
2019-04-03T02:48:30.811Z,91.82
2019-04-03T02:49:46.280Z,91.72
2019-04-03T02:50:56.607Z,91.82
2019-04-03T02:52:07.061Z,91.53
2019-04-03T02:53:17.509Z,91.44
2019-04-03T02:54:34.300Z,90.96
2019-04-03T02:55:44.807Z,91.06
2019-04-03T02:56:55.028Z,91.06
2019-04-03T02:58:05.168Z,90.3
2019-04-03T02:59:15.096Z,90.3
2019-04-03T03:00:31.441Z,90.02
2019-04-03T03:01:43.130Z,90.59
2019-04-03T03:02:53.339Z,90.87
2019-04-03T03:04:03.638Z,90.68
2019-04-03T03:05:13.813Z,91.15
2019-04-03T03:06:24.046Z,90.96
2019-04-03T03:07:38.914Z,90.87
2019-04-03T03:08:49.031Z,90.4
2019-04-03T03:09:59.447Z,90.4
2019-04-03T03:11:09.144Z,90.59
2019-04-03T03:12:19.148Z,91.06
2019-04-03T03:13:36.642Z,90.4
2019-04-03T03:14:46.388Z,90.02
2019-04-03T03:15:56.408Z,89.92
2019-04-03T03:17:06.841Z,89.54
2019-04-03T03:18:17.083Z,90.11
2019-04-03T03:19:31.705Z,90.4
2019-04-03T03:20:43.355Z,90.21
2019-04-03T03:21:53.729Z,90.87
2019-04-03T03:23:03.741Z,90.73
2019-04-03T03:24:13.581Z,90.54
2019-04-03T03:25:23.950Z,90.64
2019-04-03T03:26:40.096Z,90.45
2019-04-03T03:27:50.114Z,90.16
2019-04-03T03:29:20.560Z,91.01
2019-04-03T03:30:57.552Z,91.3
2019-04-03T03:32:30.570Z,92.24
2019-04-03T03:33:46.446Z,92.33
2019-04-03T03:35:20.396Z,93.09
2019-04-03T03:37:03.282Z,93.09
2019-04-03T03:38:18.198Z,92.14
2019-04-03T03:39:33.102Z,92.24
2019-04-03T03:40:50.059Z,92.14
2019-04-03T03:42:01.639Z,91.39
2019-04-03T03:43:12.263Z,91.39
2019-04-03T03:44:22.227Z,90.54
2019-04-03T03:45:32.653Z,90.16
2019-04-03T03:46:43.047Z,90.54
2019-04-03T03:47:53.291Z,91.49
2019-04-03T03:49:03.304Z,92.43
2019-04-03T03:50:13.962Z,93.75
2019-04-03T03:51:32.997Z,94.51
2019-04-03T03:52:43.027Z,94.32
2019-04-03T03:53:53.307Z,93.56
2019-04-03T03:55:03.909Z,93.18
2019-04-03T03:56:14.359Z,92.9
2019-04-03T03:57:24.752Z,92.99
2019-04-03T03:58:35.059Z,93.09
2019-04-03T03:59:52.854Z,92.8
2019-04-03T04:01:03.586Z,92.9
2019-04-03T04:02:14.103Z,92.99
2019-04-03T04:03:24.073Z,92.43
2019-04-03T04:04:34.421Z,92.8
2019-04-03T04:05:44.886Z,92.24
2019-04-03T04:07:03.288Z,92.05
2019-04-03T04:08:15.135Z,92.24
2019-04-03T04:09:25.140Z,92.33
2019-04-03T04:10:38.789Z,92.99
2019-04-03T04:11:48.950Z,92.8
2019-04-03T04:12:59.091Z,93.18
2019-04-03T04:14:09.336Z,93.18
2019-04-03T04:15:28.566Z,92.9
2019-04-03T04:16:40.767Z,92.9
2019-04-03T04:17:53.559Z,93.09
2019-04-03T04:19:03.598Z,93.09
2019-04-03T04:20:14.140Z,93.47
2019-04-03T04:21:24.110Z,93.47
2019-04-03T04:22:34.333Z,93.18
2019-04-03T04:23:44.573Z,93.47
2019-04-03T04:25:01.233Z,93.18
2019-04-03T04:26:10.921Z,93.75
2019-04-03T04:27:21.302Z,93.28
2019-04-03T04:28:31.251Z,93.28
2019-04-03T04:29:44.533Z,93.37
2019-04-03T04:30:54.455Z,92.8
2019-04-03T04:32:04.344Z,92.9
2019-04-03T04:33:19.700Z,92.43
2019-04-03T04:34:29.618Z,92.61
2019-04-03T04:35:39.626Z,92.9
2019-04-03T04:36:49.564Z,93.09
2019-04-03T04:38:05.619Z,92.61
2019-04-03T04:39:15.817Z,93.37
2019-04-03T04:40:25.902Z,93.28
2019-04-03T04:41:38.245Z,93.18
2019-04-03T04:42:48.168Z,93.28
2019-04-03T04:43:58.097Z,93.09
2019-04-03T04:45:08.218Z,93.09
2019-04-03T04:46:19.642Z,92.71
2019-04-03T04:47:29.613Z,92.8
2019-04-03T04:48:40.022Z,92.61
2019-04-03T04:49:50.018Z,92.61
2019-04-03T04:51:01.696Z,92.52
2019-04-03T04:52:11.608Z,92.8
2019-04-03T04:53:21.533Z,92.61
2019-04-03T04:54:34.834Z,93.37
2019-04-03T04:55:48.096Z,93.18
2019-04-03T04:56:58.244Z,93.66
2019-04-03T04:58:13.848Z,93.47
2019-04-03T04:59:23.779Z,94.22
2019-04-03T05:00:34.082Z,94.32
2019-04-03T05:01:44.178Z,94.6
2019-04-03T05:02:56.799Z,94.7
2019-04-03T05:04:09.679Z,94.89
2019-04-03T05:05:22.376Z,94.79
2019-04-03T05:06:36.677Z,95.26
2019-04-03T05:07:46.612Z,94.98
2019-04-03T05:08:56.781Z,94.89
2019-04-03T05:10:10.139Z,94.89
2019-04-03T05:11:23.048Z,95.36
2019-04-03T05:12:32.713Z,94.7
2019-04-03T05:13:49.582Z,94.79
2019-04-03T05:14:59.761Z,95.07
2019-04-03T05:16:09.792Z,95.45
2019-04-03T05:17:23.177Z,95.36
2019-04-03T05:18:34.829Z,95.45
2019-04-03T05:19:44.977Z,94.98
2019-04-03T05:20:56.812Z,94.79
2019-04-03T05:22:07.146Z,94.7
2019-04-03T05:23:17.065Z,94.51
2019-04-03T05:24:31.146Z,93.75
2019-04-03T05:25:41.249Z,93.75
2019-04-03T05:26:51.173Z,94.22
2019-04-03T05:28:02.748Z,93.7
2019-04-03T05:29:14.166Z,93.99
2019-04-03T05:30:24.251Z,93.99
2019-04-03T05:31:34.517Z,93.32
2019-04-03T05:32:46.678Z,92.38
2019-04-03T05:33:56.668Z,92
2019-04-03T05:35:06.599Z,91.44
2019-04-03T05:36:20.620Z,90.96
2019-04-03T05:37:30.536Z,91.06
2019-04-03T05:38:40.965Z,90.96
2019-04-03T05:39:51.455Z,90.4
2019-04-03T05:41:03.035Z,90.96
2019-04-03T05:42:12.957Z,90.59
2019-04-03T05:43:23.088Z,90.59
2019-04-03T05:44:36.480Z,90.87
2019-04-03T05:45:46.618Z,91.91
2019-04-03T05:46:59.245Z,92.76
2019-04-03T05:48:17.575Z,92.38
2019-04-03T05:49:28.025Z,92.19
2019-04-03T05:50:39.444Z,91.53
2019-04-03T05:51:49.476Z,91.53
2019-04-03T05:52:59.400Z,91.25
2019-04-03T05:54:14.164Z,92
2019-04-03T05:55:24.559Z,92.29
2019-04-03T05:56:34.332Z,91.91
2019-04-03T05:57:48.403Z,91.82
2019-04-03T05:59:03.176Z,90.96
2019-04-03T06:00:13.187Z,90.87
2019-04-03T06:01:23.363Z,91.06
2019-04-03T06:02:33.309Z,90.87
2019-04-03T06:03:48.001Z,90.02
2019-04-03T06:04:58.265Z,89.87
2019-04-03T06:06:17.255Z,90.06
2019-04-03T06:07:27.404Z,90.82
2019-04-03T06:08:37.797Z,90.54
2019-04-03T06:09:47.769Z,90.06
2019-04-03T06:11:08.796Z,90.06
2019-04-03T06:12:21.595Z,89.03
2019-04-03T06:13:32.125Z,88.74
2019-04-03T06:14:42.353Z,87.79
2019-04-03T06:15:56.279Z,87.23
2019-04-03T06:17:06.203Z,86.94
2019-04-03T06:18:17.709Z,86.85
2019-04-03T06:19:39.410Z,86.57
2019-04-03T06:20:49.758Z,85.91
2019-04-03T06:22:00.164Z,86.47
2019-04-03T06:23:12.763Z,86.19
2019-04-03T06:24:27.105Z,85.91
2019-04-03T06:25:37.301Z,86.29
2019-04-03T06:26:47.514Z,86.94
2019-04-03T06:27:58.021Z,86.76
2019-04-03T06:29:10.200Z,87.51
2019-04-03T06:30:22.884Z,86.94
2019-04-03T06:31:34.834Z,86.76
2019-04-03T06:32:45.045Z,86
2019-04-03T06:33:57.871Z,85.72
2019-04-03T06:35:10.036Z,85.34
2019-04-03T06:36:21.652Z,86
2019-04-03T06:37:31.582Z,85.81
2019-04-03T06:38:41.505Z,85.34
2019-04-03T06:39:51.619Z,85.43
2019-04-03T06:41:03.145Z,85.81
2019-04-03T06:42:16.716Z,85.43
2019-04-03T06:43:29.454Z,84.86
2019-04-03T06:44:40.151Z,84.53
2019-04-03T06:45:50.705Z,84.68
2019-04-03T06:47:04.080Z,84.53
2019-04-03T06:48:14.107Z,84.96
2019-04-03T06:49:24.041Z,84.96
2019-04-03T06:50:34.265Z,85.19
2019-04-03T06:51:44.746Z,85.19
2019-04-03T06:52:56.737Z,84.81
2019-04-03T06:54:10.455Z,85
2019-04-03T06:55:20.588Z,84.81
2019-04-03T06:56:33.083Z,84.16
2019-04-03T06:57:45.730Z,83.68
2019-04-03T06:58:56.280Z,84.06
2019-04-03T07:00:06.235Z,84.63
2019-04-03T07:01:18.044Z,85.1
2019-04-03T07:02:32.425Z,83.87
2019-04-03T07:03:42.590Z,83.59
2019-04-03T07:04:52.629Z,83.11
2019-04-03T07:06:05.830Z,82.17
2019-04-03T07:07:33.697Z,82.54
2019-04-03T07:08:44.437Z,82.21
2019-04-03T07:09:54.843Z,82.35
2019-04-03T07:11:06.902Z,82.73
2019-04-03T07:12:28.411Z,82.54
2019-04-03T07:13:38.649Z,83.59
2019-04-03T07:14:49.054Z,84.25
2019-04-03T07:15:59.585Z,83.72
2019-04-03T07:17:09.868Z,82.64
2019-04-03T07:18:20.001Z,82.59
2019-04-03T07:19:30.258Z,81.51
2019-04-03T07:20:42.130Z,82.02
2019-04-03T07:21:57.534Z,81.7
2019-04-03T07:23:07.524Z,82.45
2019-04-03T07:24:17.902Z,82.4
2019-04-03T07:25:28.126Z,82.5
2019-04-03T07:26:41.047Z,82.21
2019-04-03T07:27:51.182Z,81.45
2019-04-03T07:29:01.325Z,81.45
2019-04-03T07:30:16.875Z,81.64
2019-04-03T07:31:29.889Z,81.26
2019-04-03T07:32:40.306Z,81.45
2019-04-03T07:33:50.010Z,81.36
2019-04-03T07:35:11.473Z,80.98
2019-04-03T07:36:21.450Z,80.79
2019-04-03T07:37:31.530Z,81.36
2019-04-03T07:38:41.459Z,81.36
2019-04-03T07:39:52.666Z,81.26
2019-04-03T07:41:04.448Z,81.87
2019-04-03T07:42:15.021Z,81.55
2019-04-03T07:43:29.809Z,80.55
2019-04-03T07:44:39.876Z,80.17
2019-04-03T07:45:50.076Z,79.5
2019-04-03T07:47:03.196Z,79.41
2019-04-03T07:48:13.484Z,79.13
2019-04-03T07:49:23.720Z,78.94
2019-04-03T07:50:36.387Z,78.85
2019-04-03T07:51:48.874Z,79.13
2019-04-03T07:52:59.319Z,79.03
2019-04-03T07:54:09.768Z,78.85
2019-04-03T07:55:20.292Z,78.94
2019-04-03T07:56:34.065Z,78.75
2019-04-03T07:57:44.504Z,78.56
2019-04-03T07:58:54.700Z,78.85
2019-04-03T08:00:09.543Z,79.03
2019-04-03T08:01:21.240Z,78.94
2019-04-03T08:02:33.638Z,79.5
2019-04-03T08:03:52.029Z,79.03
2019-04-03T08:05:03.624Z,78.18
2019-04-03T08:06:13.624Z,78.56
2019-04-03T08:07:23.587Z,78.85
2019-04-03T08:08:33.293Z,78.56
2019-04-03T08:09:43.480Z,78.22
2019-04-03T08:10:53.405Z,78.31
2019-04-03T08:12:07.034Z,78.13
2019-04-03T08:13:17.446Z,78.22
2019-04-03T08:14:27.586Z,77.08
2019-04-03T08:15:37.896Z,76.51
2019-04-03T08:16:51.265Z,76.04
2019-04-03T08:18:05.197Z,75.28
2019-04-03T08:19:15.600Z,75.09
2019-04-03T08:20:30.544Z,75.09
2019-04-03T08:21:41.565Z,75.47
2019-04-03T08:22:51.790Z,75.28
2019-04-03T08:24:01.733Z,74.71
2019-04-03T08:25:15.211Z,74.3
2019-04-03T08:26:26.842Z,75.62
2019-04-03T08:27:37.581Z,75.43
2019-04-03T08:28:48.177Z,76.29
2019-04-03T08:29:58.105Z,75.47
2019-04-03T08:31:13.450Z,74.87
2019-04-03T08:32:23.461Z,74.3
2019-04-03T08:33:35.440Z,74.3
2019-04-03T08:34:45.796Z,74.4
2019-04-03T08:35:56.831Z,75.15
2019-04-03T08:37:12.166Z,75.24
2019-04-03T08:38:35.795Z,74.68
2019-04-03T08:39:51.241Z,75.05
2019-04-03T08:41:06.408Z,75.62
2019-04-03T08:42:16.344Z,74.77
2019-04-03T08:43:26.524Z,75.43
2019-04-03T08:44:39.808Z,75.43
2019-04-03T08:45:49.826Z,75.24
2019-04-03T08:47:00.079Z,75.34
2019-04-03T08:48:10.648Z,74.68
2019-04-03T08:49:25.432Z,74.3
2019-04-03T08:50:36.014Z,73.64
2019-04-03T08:51:46.776Z,73.73
2019-04-03T08:52:56.879Z,73.83
2019-04-03T08:54:09.424Z,75.53
2019-04-03T08:55:20.448Z,74.81
2019-04-03T08:56:30.758Z,75.28
2019-04-03T08:57:41.006Z,74.43
2019-04-03T08:59:00.218Z,73.49
2019-04-03T09:00:10.154Z,72.82
2019-04-03T09:01:20.268Z,72.92
2019-04-03T09:02:30.794Z,73.2
2019-04-03T09:03:41.043Z,74.05
2019-04-03T09:04:53.153Z,74.9
2019-04-03T09:06:03.346Z,73.68
2019-04-03T09:07:13.474Z,73.05
2019-04-03T09:08:24.647Z,72.86
2019-04-03T09:09:38.343Z,73.24
2019-04-03T09:10:48.300Z,72.63
2019-04-03T09:11:58.233Z,71.91
2019-04-03T09:13:22.750Z,71.06
2019-04-03T09:14:33.273Z,71.02
2019-04-03T09:15:43.537Z,71.97
2019-04-03T09:16:53.209Z,72.16
2019-04-03T09:18:08.415Z,72.92
2019-04-03T09:19:19.758Z,73.3
2019-04-03T09:20:30.223Z,73.68
2019-04-03T09:21:51.041Z,73.39
2019-04-03T09:23:01.531Z,73.45
2019-04-03T09:24:11.814Z,75.15
2019-04-03T09:25:21.763Z,74.49
2019-04-03T09:26:39.938Z,74.3
2019-04-03T09:27:50.017Z,74.96
2019-04-03T09:29:00.569Z,74.87
2019-04-03T09:30:10.817Z,74.68
2019-04-03T09:31:23.589Z,74.49
2019-04-03T09:32:36.263Z,75.15
2019-04-03T09:33:47.439Z,75.34
2019-04-03T09:35:03.301Z,74.4
2019-04-03T09:36:13.729Z,75.62
2019-04-03T09:37:23.654Z,75.72
2019-04-03T09:38:35.924Z,75.15
2019-04-03T09:39:48.905Z,75.43
2019-04-03T09:40:59.129Z,74.68
2019-04-03T09:42:09.467Z,75.53
2019-04-03T09:43:19.744Z,75.15
2019-04-03T09:44:31.963Z,75.15
2019-04-03T09:45:41.910Z,76.1
2019-04-03T09:46:52.223Z,74.96
2019-04-03T09:48:05.591Z,75.43
2019-04-03T09:49:20.005Z,75.09
2019-04-03T09:50:30.194Z,74.52
2019-04-03T09:51:40.264Z,73.77
2019-04-03T09:52:54.589Z,73.64
2019-04-03T09:54:07.624Z,74.4
2019-04-03T09:55:17.893Z,73.83
2019-04-03T09:56:27.965Z,74.96
2019-04-03T09:57:40.305Z,75.15
2019-04-03T09:58:50.568Z,75
2019-04-03T10:00:04.031Z,74.05
2019-04-03T10:01:20.572Z,73.2
2019-04-03T10:02:30.511Z,72.82
2019-04-03T10:03:40.769Z,72.82
2019-04-03T10:04:51.239Z,72.78
2019-04-03T10:06:04.014Z,74.68
2019-04-03T10:07:14.293Z,74.68
2019-04-03T10:08:24.863Z,74.9
2019-04-03T10:09:37.523Z,74.15
2019-04-03T10:10:51.496Z,73.68
2019-04-03T10:12:01.425Z,71.97
2019-04-03T10:13:11.344Z,72.16
2019-04-03T10:14:21.276Z,71.5
2019-04-03T10:15:34.568Z,71.88
2019-04-03T10:16:44.608Z,71.5
2019-04-03T10:17:54.965Z,70.26
2019-04-03T10:19:05.139Z,70.26
2019-04-03T10:20:20.066Z,70.07
2019-04-03T10:21:32.924Z,70.26
2019-04-03T10:22:44.134Z,70.07
2019-04-03T10:23:54.057Z,71.31
2019-04-03T10:25:08.703Z,72.06
2019-04-03T10:26:19.028Z,70.64
2019-04-03T10:27:29.255Z,70.64
2019-04-03T10:28:41.866Z,70.3
2019-04-03T10:29:58.324Z,69.54
2019-04-03T10:31:08.282Z,70.11
2019-04-03T10:32:18.356Z,69.92
2019-04-03T10:33:33.388Z,70.2
2019-04-03T10:34:43.801Z,69.64
2019-04-03T10:35:53.977Z,69.64
2019-04-03T10:37:04.204Z,69.45
2019-04-03T10:38:20.693Z,70.2
2019-04-03T10:39:30.660Z,69.73
2019-04-03T10:40:46.123Z,69.45
2019-04-03T10:42:00.344Z,69.35
2019-04-03T10:43:11.643Z,69.07
2019-04-03T10:44:21.912Z,67.65
2019-04-03T10:45:31.836Z,67.65
2019-04-03T10:46:42.389Z,67.08
2019-04-03T10:47:58.207Z,67.27
2019-04-03T10:49:08.757Z,67.36
2019-04-03T10:50:18.984Z,67.36
2019-04-03T10:51:31.092Z,66.89
2019-04-03T10:52:48.692Z,67.55
2019-04-03T10:53:59.779Z,67.46
2019-04-03T10:55:09.514Z,67.93
2019-04-03T10:56:19.183Z,66.99
2019-04-03T10:57:29.111Z,66.99
2019-04-03T10:58:45.266Z,67.65
2019-04-03T10:59:58.330Z,67.74
2019-04-03T11:01:09.174Z,67.27
2019-04-03T11:02:19.780Z,66.51
2019-04-03T11:03:29.761Z,66.03
2019-04-03T11:04:39.744Z,66.8
2019-04-03T11:05:49.682Z,68.21
2019-04-03T11:06:59.362Z,67.93
2019-04-03T11:08:09.958Z,68.12
2019-04-03T11:09:20.196Z,67.36
2019-04-03T11:10:30.039Z,66.41
2019-04-03T11:11:42.615Z,66.7
2019-04-03T11:12:52.864Z,67.18
2019-04-03T11:14:09.587Z,67.08
2019-04-03T11:15:19.559Z,66.64
2019-04-03T11:16:29.834Z,66.07
2019-04-03T11:17:42.112Z,65.78
2019-04-03T11:19:06.310Z,65.78
2019-04-03T11:20:16.734Z,65.69
2019-04-03T11:21:27.001Z,64.84
2019-04-03T11:22:43.960Z,64.55
2019-04-03T11:24:10.202Z,64.59
2019-04-03T11:25:20.024Z,64.87
2019-04-03T11:26:30.157Z,65.25
2019-04-03T11:27:46.542Z,64.87
2019-04-03T11:28:57.332Z,64.3
2019-04-03T11:30:11.131Z,64.59
2019-04-03T11:31:34.584Z,63.45
2019-04-03T11:32:50.669Z,63.45
2019-04-03T11:34:00.878Z,63.17
2019-04-03T11:35:11.153Z,62.88
2019-04-03T11:36:30.078Z,63.26
2019-04-03T11:37:40.675Z,63.54
2019-04-03T11:38:50.603Z,63.64
2019-04-03T11:40:24.009Z,62.78
2019-04-03T11:41:34.772Z,63.54
2019-04-03T11:42:44.713Z,63.73
2019-04-03T11:43:55.206Z,63.45
2019-04-03T11:45:07.262Z,63.73
2019-04-03T11:46:17.666Z,62.59
2019-04-03T11:47:28.117Z,62.4
2019-04-03T11:48:38.079Z,62.66
2019-04-03T11:49:55.560Z,62.08
2019-04-03T11:51:05.512Z,62.08
2019-04-03T11:52:15.481Z,62.47
2019-04-03T11:53:26.200Z,62.66
2019-04-03T11:54:41.499Z,62.37
2019-04-03T11:55:51.447Z,63.7
2019-04-03T11:57:02.167Z,63.79
2019-04-03T11:58:12.579Z,63.7
2019-04-03T11:59:26.971Z,62.66
2019-04-03T12:00:36.929Z,63.32
2019-04-03T12:01:47.564Z,63.6
2019-04-03T12:02:58.018Z,64.65
2019-04-03T12:04:08.498Z,64.93
2019-04-03T12:05:23.213Z,66.83
2019-04-03T12:06:33.505Z,66.93
2019-04-03T12:07:43.949Z,65.59
2019-04-03T12:08:54.109Z,65.12
2019-04-03T12:10:08.395Z,65.88
2019-04-03T12:11:18.691Z,65.03
2019-04-03T12:12:29.053Z,64.93
2019-04-03T12:13:39.173Z,64.36
2019-04-03T12:14:52.678Z,64.55
2019-04-03T12:16:03.057Z,63.89
2019-04-03T12:17:13.572Z,64.59
2019-04-03T12:18:24.355Z,63.54
2019-04-03T12:19:39.500Z,64.11
2019-04-03T12:20:52.509Z,64.84
2019-04-03T12:22:02.598Z,65.78
2019-04-03T12:23:12.888Z,66.74
2019-04-03T12:24:23.136Z,66.35
2019-04-03T12:25:38.955Z,66.35
2019-04-03T12:26:51.841Z,66.45
2019-04-03T12:28:06.924Z,65.72
2019-04-03T12:29:23.514Z,65.53
2019-04-03T12:30:33.989Z,65.25
2019-04-03T12:31:44.702Z,64.4
2019-04-03T12:32:54.826Z,64.49
2019-04-03T12:34:07.649Z,63.73
2019-04-03T12:35:17.881Z,62.31
2019-04-03T12:36:30.270Z,62.5
2019-04-03T12:37:40.558Z,63.35
2019-04-03T12:38:56.159Z,62.69
2019-04-03T12:40:06.228Z,62.97
2019-04-03T12:41:16.972Z,63.26
2019-04-03T12:42:30.325Z,62.59
2019-04-03T12:43:40.825Z,61.68
2019-04-03T12:44:56.666Z,60.73
2019-04-03T12:46:07.541Z,61.11
2019-04-03T12:47:17.467Z,61.3
2019-04-03T12:48:31.091Z,60.92
2019-04-03T12:49:41.507Z,61.11
2019-04-03T12:50:52.237Z,62.53
2019-04-03T12:52:06.852Z,63.67
2019-04-03T12:53:19.607Z,63.95
2019-04-03T12:54:30.373Z,63.51
2019-04-03T12:55:42.391Z,61.8
2019-04-03T12:56:53.577Z,61.33
2019-04-03T12:58:07.877Z,60.28
2019-04-03T12:59:20.174Z,59.84
2019-04-03T13:00:30.796Z,59.36
2019-04-03T13:01:41.387Z,60.22
2019-04-03T13:02:55.391Z,61.36
2019-04-03T13:04:05.974Z,60.79
2019-04-03T13:05:16.382Z,61.45
2019-04-03T13:06:26.645Z,61.55
2019-04-03T13:07:39.258Z,61.58
2019-04-03T13:08:51.111Z,61.01
2019-04-03T13:10:01.784Z,60.53
2019-04-03T13:11:14.465Z,60.53
2019-04-03T13:12:29.631Z,59.68
2019-04-03T13:13:41.448Z,58.83
2019-04-03T13:14:51.923Z,58.83
2019-04-03T13:16:02.207Z,58.25
2019-04-03T13:17:17.001Z,57.21
2019-04-03T13:18:26.935Z,57.59
2019-04-03T13:19:37.607Z,56.92
2019-04-03T13:20:47.939Z,56.45
2019-04-03T13:21:58.477Z,56.04
2019-04-03T13:23:09.045Z,56.32
2019-04-03T13:24:21.599Z,57.09
2019-04-03T13:25:31.783Z,56.89
2019-04-03T13:26:42.009Z,58.8
2019-04-03T13:27:52.368Z,59.27
2019-04-03T13:29:08.981Z,58.51
2019-04-03T13:30:20.101Z,58.7
2019-04-03T13:31:30.025Z,59.17
2019-04-03T13:32:40.695Z,59.93
2019-04-03T13:34:12.688Z,59.96
2019-04-03T13:35:23.149Z,59.01
2019-04-03T13:36:33.351Z,58.25
2019-04-03T13:37:43.090Z,58.16
2019-04-03T13:38:54.415Z,57.28
2019-04-03T13:40:09.802Z,58.32
2019-04-03T13:41:20.243Z,58.22
2019-04-03T13:42:33.454Z,57.18
2019-04-03T13:43:43.892Z,57.75
2019-04-03T13:45:00.563Z,58.13
2019-04-03T13:46:11.156Z,58.22
2019-04-03T13:47:21.966Z,58.41
2019-04-03T13:48:32.927Z,58.89
2019-04-03T13:49:43.490Z,58.98
2019-04-03T13:50:59.078Z,60.5
2019-04-03T13:52:12.059Z,60.41
2019-04-03T13:53:24.946Z,59.84
2019-04-03T13:54:35.710Z,60.22
2019-04-03T13:55:48.183Z,59.46
2019-04-03T13:56:58.871Z,59.74
2019-04-03T13:58:09.467Z,60.13
2019-04-03T13:59:20.192Z,59.55
2019-04-03T14:00:34.981Z,59.84
2019-04-03T14:01:45.309Z,60.03
2019-04-03T14:02:57.170Z,59.46
2019-04-03T14:04:08.195Z,58.22
2019-04-03T14:05:18.225Z,58.51
2019-04-03T14:06:38.511Z,57.65
2019-04-03T14:07:48.572Z,57.37
2019-04-03T14:08:58.987Z,57.28
2019-04-03T14:10:09.853Z,57.37
2019-04-03T14:11:19.865Z,58.58
2019-04-03T14:12:33.168Z,58.58
2019-04-03T14:13:50.529Z,59.05
2019-04-03T14:15:01.188Z,59.52
2019-04-03T14:16:23.784Z,61.71
2019-04-03T14:17:39.742Z,62.46
2019-04-03T14:19:04.882Z,63.51
2019-04-03T14:20:17.807Z,62.66
2019-04-03T14:21:34.820Z,62.75
2019-04-03T14:22:46.594Z,64.56
2019-04-03T14:23:57.841Z,64.56
2019-04-03T14:25:23.001Z,64.65
2019-04-03T14:26:47.301Z,63.51
2019-04-03T14:27:57.153Z,63.79
2019-04-03T14:29:11.228Z,64.65
2019-04-03T14:30:21.278Z,65.03
2019-04-03T14:31:38.787Z,66.04
2019-04-03T14:32:55.121Z,66.52
2019-04-03T14:34:05.274Z,68.13
2019-04-03T14:35:52.485Z,69.36
2019-04-03T14:37:03.321Z,70.4
2019-04-03T14:38:14.775Z,70.59
2019-04-03T14:39:25.219Z,71.17
2019-04-03T14:40:35.153Z,73.16
2019-04-03T14:41:48.911Z,73.07
2019-04-03T14:43:02.972Z,73.82
2019-04-03T14:44:13.003Z,73.72
2019-04-03T14:45:23.484Z,75.24
2019-04-03T14:46:34.021Z,75.43
2019-04-03T14:47:44.416Z,75.87
2019-04-03T14:49:03.036Z,76.39
2019-04-03T14:50:13.895Z,75.78
2019-04-03T14:51:24.179Z,75.96
2019-04-03T14:52:34.273Z,75.62
2019-04-03T14:53:45.634Z,75.49
2019-04-03T14:55:15.151Z,74.83
2019-04-03T14:56:36.007Z,75.59
2019-04-03T14:57:46.199Z,77.2
2019-04-03T14:59:01.640Z,77.2
2019-04-03T15:00:30.803Z,77.11
2019-04-03T15:01:41.172Z,77.58
2019-04-03T15:02:58.601Z,78.15
2019-04-03T15:04:12.329Z,78.87
2019-04-03T15:05:23.188Z,79.44
2019-04-03T15:06:33.458Z,80.48
2019-04-03T15:07:43.489Z,81.71
2019-04-03T15:08:58.125Z,81.52
2019-04-03T15:10:08.735Z,81.71
2019-04-03T15:11:20.872Z,81.9
2019-04-03T15:12:32.642Z,82.37
2019-04-03T15:13:47.391Z,82.66
2019-04-03T15:14:59.532Z,82.56
2019-04-03T15:16:09.958Z,82.75
2019-04-03T15:17:20.652Z,82.56
2019-04-03T15:18:31.484Z,83.13
2019-04-03T15:19:47.416Z,83.23
2019-04-03T15:20:59.812Z,83.32
2019-04-03T15:22:10.111Z,83.98
2019-04-03T15:23:20.037Z,83.8
2019-04-03T15:24:30.472Z,84.17
2019-04-03T15:25:42.582Z,84.74
2019-04-03T15:26:57.910Z,85.31
2019-04-03T15:28:08.470Z,85.08
2019-04-03T15:29:18.449Z,86.03
2019-04-03T15:30:28.389Z,85.55
2019-04-03T15:31:38.338Z,85.84
2019-04-03T15:32:54.243Z,86.41